Time;durP1;ratioP1;P1;durP2;ratioP2;P2;SDS_P1;SDS_P2;PMS_P1;PMS_P2;Temp;Humidity;BMP_temperature;BMP_pressure;BME280_temperature;BME280_humidity;BME280_pressure;Samples;Min_cycle;Max_cycle;Signal;HPM_P1;HPM_P2
2023/06/14 00:00:05;;;;;;;7.80;5.00;;;;;;;12.90;86.61;100641.09;102398;279;120947;-55
2023/06/14 00:02:49;;;;;;;7.40;5.20;;;;;;;12.91;86.62;100643.92;102391;279;105260;-55
2023/06/14 00:05:33;;;;;;;8.60;6.00;;;;;;;12.93;86.45;100644.02;102354;279;115076;-58
2023/06/14 00:08:07;;;;;;;7.00;5.60;;;;;;;12.91;86.57;100637.13;102402;279;96847;-58
2023/06/14 00:10:43;;;;;;;6.90;5.30;;;;;;;12.88;86.63;100638.44;102441;279;97541;-58
2023/06/14 00:13:17;;;;;;;6.90;5.40;;;;;;;12.94;86.55;100641.20;102421;279;120188;-59
2023/06/14 00:15:49;;;;;;;7.90;5.30;;;;;;;12.95;86.57;100637.19;102413;279;104824;-58
2023/06/14 00:18:23;;;;;;;8.10;5.80;;;;;;;12.92;86.58;100636.80;102405;279;112871;-59
2023/06/14 00:21:08;;;;;;;6.60;5.50;;;;;;;12.93;86.45;100632.25;102401;279;96059;-56
2023/06/14 00:23:45;;;;;;;6.40;5.30;;;;;;;12.93;86.62;100629.67;102391;279;97020;-56
2023/06/14 00:26:28;;;;;;;7.50;5.60;;;;;;;12.89;86.76;100626.77;102383;279;119946;-57
2023/06/14 00:29:05;;;;;;;;;;;;;;;12.89;86.32;100622.23;102387;279;106328;-56
2023/06/14 00:31:36;;;;;;;6.00;5.40;;;;;;;12.88;86.40;100625.31;102461;279;114501;-58
2023/06/14 00:34:11;;;;;;;7.00;5.30;;;;;;;12.83;86.81;100623.98;102399;279;95789;-58
2023/06/14 00:36:58;;;;;;;7.20;5.70;;;;;;;12.79;86.98;100619.20;102406;279;97752;-56
2023/06/14 00:39:44;;;;;;;7.90;5.80;;;;;;;12.82;86.87;100621.16;102407;279;122063;-56
2023/06/14 00:42:31;;;;;;;8.10;5.70;;;;;;;12.84;86.93;100616.85;102455;279;105262;-59
2023/06/14 00:45:09;;;;;;;8.40;5.10;;;;;;;12.88;86.93;100614.88;102335;279;116199;-57
2023/06/14 00:47:45;;;;;;;6.40;5.70;;;;;;;12.87;86.92;100617.27;102382;279;95145;-57
2023/06/14 00:50:26;;;;;;;8.00;5.50;;;;;;;12.84;86.89;100616.77;102414;279;97155;-59
2023/06/14 00:53:01;;;;;;;6.60;5.40;;;;;;;12.87;87.05;100618.04;102409;279;119816;-58
2023/06/14 00:55:42;;;;;;;7.20;5.50;;;;;;;12.86;87.08;100617.20;102398;279;106042;-56
2023/06/14 00:58:24;;;;;;;6.90;5.30;;;;;;;12.90;86.95;100615.77;102371;279;115098;-56
2023/06/14 01:01:03;;;;;;;7.20;5.20;;;;;;;12.94;86.97;100619.66;102391;279;97571;-57
2023/06/14 01:03:41;;;;;;;7.30;5.60;;;;;;;12.89;87.03;100617.21;102367;279;98335;-58
2023/06/14 01:06:30;;;;;;;6.80;4.90;;;;;;;12.86;87.17;100615.83;102372;279;120846;-55
2023/06/14 01:09:18;;;;;;;7.00;5.60;;;;;;;12.89;86.93;100614.37;102387;279;106879;-57
2023/06/14 01:12:10;;;;;;;6.70;5.20;;;;;;;12.87;87.07;100612.40;102405;279;115042;-56
2023/06/14 01:14:48;;;;;;;6.10;5.40;;;;;;;12.87;87.08;100615.79;102338;279;96186;-57
2023/06/14 01:17:26;;;;;;;6.30;5.30;;;;;;;12.90;87.11;100619.43;102466;279;97519;-58
2023/06/14 01:20:09;;;;;;;7.60;5.00;;;;;;;12.88;87.15;100614.91;102383;279;121179;-59
2023/06/14 01:22:53;;;;;;;7.70;5.40;;;;;;;12.87;87.28;100611.30;102385;279;105138;-57
2023/06/14 01:25:26;;;;;;;8.90;5.50;;;;;;;12.92;87.03;100619.48;102402;279;114916;-56
2023/06/14 01:28:03;;;;;;;7.80;5.30;;;;;;;12.92;87.03;100616.65;102400;279;96887;-57
2023/06/14 01:30:44;;;;;;;7.60;5.00;;;;;;;12.91;87.16;100614.56;102411;279;96806;-56
2023/06/14 01:33:26;;;;;;;6.70;5.70;;;;;;;12.93;87.13;100613.89;102396;279;121569;-57
2023/06/14 01:36:03;;;;;;;6.60;5.40;;;;;;;12.98;87.04;100612.44;102408;279;105196;-56
2023/06/14 01:38:44;;;;;;;10.30;5.60;;;;;;;12.96;87.01;100613.25;102374;279;113691;-56
2023/06/14 01:41:20;;;;;;;6.50;5.50;;;;;;;12.96;87.16;100607.58;102349;279;97240;-60
2023/06/14 01:44:01;;;;;;;7.30;5.60;;;;;;;13.00;87.21;100608.65;102416;279;96867;-60
2023/06/14 01:46:37;;;;;;;7.00;5.50;;;;;;;13.01;87.26;100606.94;102391;279;121314;-59
2023/06/14 01:49:08;;;;;;;6.70;5.20;;;;;;;13.00;87.40;100606.05;102387;279;104839;-60
2023/06/14 01:51:41;;;;;;;6.80;5.90;;;;;;;12.98;87.29;100607.38;102384;279;114213;-56
2023/06/14 01:54:12;;;;;;;7.10;5.70;;;;;;;12.92;87.33;100610.45;102355;279;95113;-57
2023/06/14 01:56:43;;;;;;;6.60;5.80;;;;;;;12.87;87.41;100614.41;102403;267;96824;-55
2023/06/14 01:59:18;;;;;;;7.50;5.80;;;;;;;12.86;87.59;100613.98;102385;279;120761;-55
2023/06/14 02:01:57;;;;;;;6.80;5.90;;;;;;;12.94;87.56;100614.58;102400;279;105602;-59
2023/06/14 02:04:30;;;;;;;6.70;5.80;;;;;;;13.00;87.44;100610.57;102384;279;114889;-61
2023/06/14 02:07:11;;;;;;;8.20;5.90;;;;;;;13.02;87.51;100605.60;102385;279;97986;-57
2023/06/14 02:09:48;;;;;;;8.70;5.80;;;;;;;13.01;87.51;100599.39;102426;279;96269;-57
2023/06/14 02:12:30;;;;;;;7.40;5.60;;;;;;;13.00;87.57;100593.10;102426;279;119599;-59
2023/06/14 02:15:09;;;;;;;9.30;6.60;;;;;;;12.96;87.56;100591.30;102438;279;103224;-59
2023/06/14 02:17:44;;;;;;;8.40;6.10;;;;;;;12.96;87.59;100596.15;102355;279;115460;-56
2023/06/14 02:20:19;;;;;;;8.20;5.50;;;;;;;12.96;87.88;100596.11;102434;279;95401;-60
2023/06/14 02:23:00;;;;;;;8.50;6.00;;;;;;;12.98;87.93;100595.25;102379;279;98089;-59
2023/06/14 02:25:42;;;;;;;8.00;6.10;;;;;;;13.00;87.86;100594.58;102419;279;121231;-59
2023/06/14 02:28:16;;;;;;;7.90;6.20;;;;;;;13.04;88.04;100600.41;102385;279;106134;-58
2023/06/14 02:30:53;;;;;;;6.20;5.60;;;;;;;13.07;88.00;100601.61;102351;279;112655;-59
2023/06/14 02:33:25;;;;;;;9.10;5.90;;;;;;;13.08;88.03;100594.88;102363;279;96194;-59
2023/06/14 02:36:03;;;;;;;8.10;6.40;;;;;;;13.09;87.96;100598.55;102425;279;95734;-55
2023/06/14 02:38:37;;;;;;;9.30;6.50;;;;;;;13.10;88.02;100595.88;102399;279;120969;-56
2023/06/14 02:41:10;;;;;;;8.90;6.70;;;;;;;13.08;87.86;100598.53;102410;279;105274;-58
2023/06/14 02:43:44;;;;;;;8.10;6.80;;;;;;;13.08;88.05;100595.33;102374;279;113923;-57
2023/06/14 02:46:18;;;;;;;10.40;7.20;;;;;;;13.13;87.99;100597.31;102456;279;96451;-56
2023/06/14 02:48:51;;;;;;;;;;;;;;;13.15;88.16;100592.65;102444;279;96740;-56
2023/06/14 02:51:23;;;;;;;7.80;6.80;;;;;;;13.19;87.97;100590.16;102416;279;120207;-56
2023/06/14 02:54:01;;;;;;;9.20;6.40;;;;;;;13.20;88.02;100586.04;102412;279;105999;-56
2023/06/14 02:56:43;;;;;;;8.30;6.60;;;;;;;13.19;87.95;100585.95;102393;279;114181;-57
2023/06/14 02:59:19;;;;;;;7.60;5.70;;;;;;;13.20;87.99;100583.66;102387;279;97485;-56
2023/06/14 03:01:58;;;;;;;9.80;6.60;;;;;;;13.21;88.00;100581.49;102391;279;97344;-56
2023/06/14 03:04:34;;;;;;;8.20;7.20;;;;;;;13.25;88.00;100577.76;102326;279;120086;-57
2023/06/14 03:07:12;;;;;;;9.80;8.10;;;;;;;13.27;87.71;100579.30;102400;279;105363;-60
2023/06/14 03:09:54;;;;;;;8.00;7.10;;;;;;;13.29;87.67;100581.33;102366;279;113585;-60
2023/06/14 03:12:28;;;;;;;9.60;7.30;;;;;;;13.29;87.65;100581.91;102374;279;96587;-56
2023/06/14 03:15:05;;;;;;;10.10;7.90;;;;;;;13.29;87.78;100582.16;102411;279;96234;-57
2023/06/14 03:17:51;;;;;;;9.60;7.40;;;;;;;13.28;87.92;100579.73;101798;280;773994;-57
2023/06/14 03:20:32;;;;;;;9.30;7.40;;;;;;;13.28;87.84;100578.98;102408;279;103841;-56
2023/06/14 03:23:09;;;;;;;8.70;7.50;;;;;;;13.30;87.93;100578.95;102387;279;112464;-57
2023/06/14 03:25:45;;;;;;;9.10;7.20;;;;;;;13.29;87.88;100581.70;102429;279;95521;-60
2023/06/14 03:28:23;;;;;;;8.40;6.80;;;;;;;13.32;88.00;100579.20;102455;279;97742;-60
2023/06/14 03:30:58;;;;;;;7.80;6.70;;;;;;;13.36;87.82;100579.77;102412;267;121419;-56
2023/06/14 03:33:37;;;;;;;9.50;7.20;;;;;;;13.37;87.93;100582.95;102420;279;104365;-57
2023/06/14 03:36:09;;;;;;;8.50;6.40;;;;;;;13.43;87.83;100585.27;102459;279;113796;-57
2023/06/14 03:38:49;;;;;;;8.80;7.10;;;;;;;13.42;87.96;100586.47;102372;279;97199;-57
2023/06/14 03:41:30;;;;;;;7.60;6.80;;;;;;;13.45;87.69;100584.98;102383;279;98205;-59
2023/06/14 03:44:08;;;;;;;7.30;6.20;;;;;;;13.49;87.76;100586.95;102411;279;120130;-58
2023/06/14 03:46:44;;;;;;;9.40;6.60;;;;;;;13.52;87.85;100585.09;102426;279;104535;-57
2023/06/14 03:49:18;;;;;;;9.40;7.10;;;;;;;13.50;87.94;100583.27;102387;279;114068;-56
2023/06/14 03:51:53;;;;;;;8.30;7.20;;;;;;;13.52;87.95;100582.04;102394;279;96692;-57
2023/06/14 03:54:29;;;;;;;8.90;7.10;;;;;;;13.54;88.02;100575.86;102389;279;96195;-57
2023/06/14 03:57:02;;;;;;;10.00;7.00;;;;;;;13.56;88.08;100577.20;102392;279;121614;-60
2023/06/14 03:59:37;;;;;;;8.10;7.00;;;;;;;13.58;88.09;100575.42;102407;279;105671;-59
2023/06/14 04:02:15;;;;;;;12.40;8.00;;;;;;;13.65;88.17;100578.39;102416;279;113422;-56
2023/06/14 04:04:56;;;;;;;8.10;6.70;;;;;;;13.68;87.98;100584.91;102408;279;95839;-57
2023/06/14 04:07:39;;;;;;;8.70;7.10;;;;;;;13.70;88.27;100586.89;102451;279;99076;-56
2023/06/14 04:10:13;;;;;;;8.80;6.60;;;;;;;13.72;88.23;100588.23;102425;279;120891;-57
2023/06/14 04:12:49;;;;;;;9.40;7.40;;;;;;;13.77;88.09;100591.88;102461;279;104309;-57
2023/06/14 04:15:21;;;;;;;8.80;6.50;;;;;;;13.80;88.04;100587.91;102378;279;114630;-59
2023/06/14 04:17:57;;;;;;;7.70;6.90;;;;;;;13.82;88.04;100588.24;102436;279;95642;-58
2023/06/14 04:20:30;;;;;;;9.10;7.20;;;;;;;13.83;88.12;100589.42;102483;279;96637;-57
2023/06/14 04:23:18;;;;;;;12.60;6.40;;;;;;;13.95;87.91;100590.25;102423;279;119309;-56
2023/06/14 04:25:50;;;;;;;7.50;6.40;;;;;;;14.01;88.03;100594.44;102460;279;105214;-59
2023/06/14 04:28:40;;;;;;;7.30;6.00;;;;;;;14.09;87.60;100597.58;102376;279;114405;-58
2023/06/14 04:31:18;;;;;;;11.10;6.90;;;;;;;14.12;87.68;100592.40;102429;279;95461;-58
2023/06/14 04:33:56;;;;;;;11.10;6.00;;;;;;;14.13;87.27;100590.27;102399;279;96860;-58
2023/06/14 04:36:36;;;;;;;8.30;6.40;;;;;;;14.11;87.07;100590.52;102398;279;119543;-59
2023/06/14 04:39:07;;;;;;;10.70;7.10;;;;;;;14.12;87.07;100586.47;102389;279;104534;-58
2023/06/14 04:41:42;;;;;;;8.40;6.10;;;;;;;14.11;86.84;100588.35;102398;279;113179;-56
2023/06/14 04:44:20;;;;;;;11.40;6.30;;;;;;;14.16;86.98;100588.57;102379;279;97352;-56
2023/06/14 04:46:56;;;;;;;10.00;6.90;;;;;;;14.18;86.91;100582.13;102386;279;98124;-57
2023/06/14 04:49:30;;;;;;;8.10;6.20;;;;;;;14.20;86.93;100583.30;102402;279;121435;-60
2023/06/14 04:52:05;;;;;;;8.10;6.50;;;;;;;14.25;86.78;100581.95;102412;279;104968;-57
2023/06/14 04:54:42;;;;;;;10.40;6.40;;;;;;;14.24;86.70;100580.99;102401;279;113344;-56
2023/06/14 04:57:25;;;;;;;11.30;7.00;;;;;;;14.27;86.54;100582.59;102433;279;96934;-59
2023/06/14 05:00:00;;;;;;;8.90;6.30;;;;;;;14.29;86.68;100584.88;102440;279;97154;-58
2023/06/14 05:02:37;;;;;;;9.30;6.90;;;;;;;14.34;86.80;100586.92;102453;279;119365;-57
2023/06/14 05:05:11;;;;;;;9.40;6.60;;;;;;;14.35;86.92;100589.30;102487;279;104659;-58
2023/06/14 05:07:50;;;;;;;9.40;6.30;;;;;;;14.37;86.78;100591.40;102468;279;114227;-58
2023/06/14 05:10:22;;;;;;;9.20;6.70;;;;;;;14.39;86.74;100598.19;102361;279;96272;-57
2023/06/14 05:13:03;;;;;;;9.00;7.20;;;;;;;14.35;86.65;100602.18;102420;279;96872;-57
2023/06/14 05:15:45;;;;;;;7.70;6.70;;;;;;;14.30;86.60;100600.56;102444;279;119724;-59
2023/06/14 05:18:22;;;;;;;9.30;6.90;;;;;;;14.28;86.74;100603.23;102403;279;105005;-59
2023/06/14 05:21:04;;;;;;;10.80;7.00;;;;;;;14.29;86.73;100602.79;102383;279;114289;-56
2023/06/14 05:23:39;;;;;;;10.00;6.90;;;;;;;14.33;86.71;100604.23;102350;267;95405;-56
2023/06/14 05:26:11;;;;;;;9.10;7.10;;;;;;;14.36;86.69;100604.36;102228;279;98685;-57
2023/06/14 05:28:52;;;;;;;10.90;6.60;;;;;;;14.38;86.92;100601.17;102408;279;119899;-57
2023/06/14 05:31:33;;;;;;;8.10;6.30;;;;;;;14.40;86.68;100603.98;102419;279;104557;-57
2023/06/14 05:34:08;;;;;;;8.80;7.00;;;;;;;14.36;86.66;100608.76;102398;279;115096;-57
2023/06/14 05:36:43;;;;;;;8.10;6.10;;;;;;;14.37;86.68;100611.46;102439;279;95635;-56
2023/06/14 05:39:20;;;;;;;9.10;6.80;;;;;;;14.42;86.65;100610.22;102426;267;96812;-56
2023/06/14 05:41:59;;;;;;;8.50;6.80;;;;;;;14.49;86.73;100611.39;102445;279;120920;-61
2023/06/14 05:44:38;;;;;;;13.00;6.50;;;;;;;14.56;86.68;100609.95;102493;267;105852;-59
2023/06/14 05:47:16;;;;;;;8.30;6.90;;;;;;;14.56;86.70;100609.50;102488;279;114557;-59
2023/06/14 05:49:52;;;;;;;10.60;7.10;;;;;;;14.63;87.02;100609.41;102458;279;96070;-59
2023/06/14 05:52:31;;;;;;;9.80;7.30;;;;;;;14.75;86.71;100611.66;102510;279;97896;-60
2023/06/14 05:55:07;;;;;;;9.70;7.10;;;;;;;14.90;86.73;100612.18;102422;279;119708;-59
2023/06/14 05:57:45;;;;;;;10.80;7.40;;;;;;;14.96;86.58;100611.58;102444;279;104684;-57
2023/06/14 06:00:19;;;;;;;11.90;7.00;;;;;;;15.04;86.43;100613.41;102417;279;113971;-56
2023/06/14 06:02:57;;;;;;;9.10;6.80;;;;;;;15.07;86.41;100608.97;102397;279;96775;-57
2023/06/14 06:05:38;;;;;;;9.60;7.00;;;;;;;15.24;86.49;100605.05;102404;279;97747;-60
2023/06/14 06:08:13;;;;;;;9.60;6.80;;;;;;;15.47;86.51;100601.47;102361;279;119786;-59
2023/06/14 06:10:52;;;;;;;13.00;7.50;;;;;;;15.58;86.49;100604.98;102373;279;105358;-56
2023/06/14 06:13:32;;;;;;;9.70;7.10;;;;;;;15.65;86.39;100604.20;102345;279;113288;-56
2023/06/14 06:16:04;;;;;;;10.10;7.70;;;;;;;15.78;86.42;100604.98;102360;279;95957;-56
2023/06/14 06:18:36;;;;;;;11.10;7.60;;;;;;;15.90;85.95;100602.01;102378;279;97402;-56
2023/06/14 06:21:15;;;;;;;11.30;7.60;;;;;;;15.86;85.66;100604.42;102408;279;119931;-56
2023/06/14 06:23:55;;;;;;;10.30;7.30;;;;;;;15.88;85.15;100602.70;102420;279;104437;-56
2023/06/14 06:26:27;;;;;;;13.20;7.80;;;;;;;15.81;85.19;100604.53;102391;279;114677;-56
2023/06/14 06:29:12;;;;;;;10.10;7.60;;;;;;;15.85;85.08;100608.66;102223;279;96213;-57
2023/06/14 06:31:48;;;;;;;9.90;7.20;;;;;;;15.99;84.67;100611.09;102467;279;98542;-59
2023/06/14 06:34:21;;;;;;;10.40;7.20;;;;;;;16.00;84.35;100616.37;102449;279;121689;-57
2023/06/14 06:36:55;;;;;;;13.20;7.00;;;;;;;16.04;84.24;100614.48;102433;279;104941;-55
2023/06/14 06:39:26;;;;;;;12.60;7.80;;;;;;;16.03;84.11;100617.70;102438;279;114293;-57
2023/06/14 06:42:05;;;;;;;9.90;7.70;;;;;;;15.98;84.01;100617.94;102458;279;97292;-59
2023/06/14 06:44:40;;;;;;;8.30;6.80;;;;;;;15.92;83.79;100619.69;102409;279;98510;-58
2023/06/14 06:47:25;;;;;;;9.40;7.30;;;;;;;15.88;83.46;100623.03;102442;279;120568;-56
2023/06/14 06:50:04;;;;;;;8.80;7.30;;;;;;;15.87;83.22;100621.52;102381;279;105852;-55
2023/06/14 06:52:41;;;;;;;8.50;7.10;;;;;;;15.90;83.51;100616.56;102362;279;114519;-56
2023/06/14 06:55:12;;;;;;;10.30;7.70;;;;;;;15.98;83.65;100620.91;102330;279;95445;-56
2023/06/14 06:57:52;;;;;;;9.00;7.40;;;;;;;16.11;83.53;100622.64;102435;279;97830;-55
2023/06/14 07:00:26;;;;;;;16.00;8.40;;;;;;;16.21;83.23;100621.51;102375;279;120855;-56
2023/06/14 07:02:57;;;;;;;9.80;7.40;;;;;;;16.26;83.15;100620.59;102390;279;105775;-59
2023/06/14 07:05:32;;;;;;;9.30;8.00;;;;;;;16.21;83.17;100624.58;102397;279;114295;-57
2023/06/14 07:08:05;;;;;;;8.10;7.30;;;;;;;16.17;82.98;100625.06;102360;279;96019;-59
2023/06/14 07:10:49;;;;;;;7.70;7.00;;;;;;;16.15;82.93;100622.64;102430;279;95698;-60
2023/06/14 07:13:36;;;;;;;9.40;7.20;;;;;;;16.07;82.99;100618.55;102427;279;119519;-60
2023/06/14 07:16:12;;;;;;;10.20;7.80;;;;;;;16.11;83.11;100618.86;102280;279;105017;-56
2023/06/14 07:18:51;;;;;;;9.50;7.80;;;;;;;16.11;83.02;100616.90;102419;279;114863;-56
2023/06/14 07:21:26;;;;;;;8.70;7.70;;;;;;;16.12;83.33;100619.55;102449;279;95940;-55
2023/06/14 07:24:04;;;;;;;10.20;7.80;;;;;;;16.04;83.38;100615.67;102425;279;100321;-57
2023/06/14 07:26:36;;;;;;;8.90;7.30;;;;;;;16.08;83.43;100612.67;102444;279;120089;-61
2023/06/14 07:29:08;;;;;;;8.40;7.50;;;;;;;16.19;83.46;100624.33;102436;279;106209;-59
2023/06/14 07:31:50;;;;;;;10.50;7.80;;;;;;;16.35;83.47;100627.95;102421;279;114165;-56
2023/06/14 07:34:27;;;;;;;10.60;7.90;;;;;;;16.52;83.27;100628.30;102334;279;97648;-59
2023/06/14 07:37:04;;;;;;;10.60;8.00;;;;;;;16.70;83.11;100628.83;102459;267;97865;-57
2023/06/14 07:39:37;;;;;;;11.10;7.70;;;;;;;16.83;82.69;100633.66;102386;279;120637;-55
2023/06/14 07:42:11;;;;;;;11.90;8.10;;;;;;;16.98;82.78;100632.20;102434;279;106096;-58
2023/06/14 07:44:42;;;;;;;11.20;7.20;;;;;;;17.06;82.72;100632.27;102381;279;113082;-57
2023/06/14 07:47:18;;;;;;;11.90;8.50;;;;;;;17.16;82.44;100631.45;102431;279;94333;-59
2023/06/14 07:49:49;;;;;;;8.40;7.50;;;;;;;17.32;81.99;100631.73;102417;279;97990;-60
2023/06/14 07:52:22;;;;;;;8.30;6.80;;;;;;;17.43;81.65;100635.00;102476;279;121345;-56
2023/06/14 07:54:58;;;;;;;8.90;7.60;;;;;;;17.53;81.58;100634.51;102469;279;104560;-56
2023/06/14 07:57:34;;;;;;;9.00;6.70;;;;;;;17.63;81.34;100636.67;102444;279;114181;-57
2023/06/14 08:00:14;;;;;;;9.00;6.90;;;;;;;17.74;81.00;100632.63;102435;279;95234;-57
2023/06/14 08:02:51;;;;;;;10.30;7.40;;;;;;;17.75;80.47;100634.38;102454;279;96869;-57
2023/06/14 08:05:31;;;;;;;10.30;7.90;;;;;;;17.85;80.30;100635.67;102494;279;118089;-57
2023/06/14 08:08:06;;;;;;;9.00;7.50;;;;;;;17.87;79.93;100633.96;102464;279;104629;-56
2023/06/14 08:10:47;;;;;;;10.30;7.20;;;;;;;17.81;79.61;100639.23;102449;279;113775;-58
2023/06/14 08:13:20;;;;;;;8.10;6.80;;;;;;;17.81;79.37;100636.19;102460;279;94657;-56
2023/06/14 08:15:58;;;;;;;7.20;6.50;;;;;;;17.79;79.20;100637.46;102446;279;98372;-56
2023/06/14 08:18:38;;;;;;;8.50;6.70;;;;;;;17.82;79.43;100637.93;102445;279;119940;-57
2023/06/14 08:21:10;;;;;;;11.30;6.70;;;;;;;17.82;79.14;100636.94;102435;279;104561;-67
2023/06/14 08:23:43;;;;;;;8.70;6.50;;;;;;;17.81;78.96;100638.15;102375;279;115506;-66
2023/06/14 08:26:28;;;;;;;9.90;6.50;;;;;;;17.87;78.63;100640.90;102444;279;93867;-67
2023/06/14 08:29:00;;;;;;;8.90;6.70;;;;;;;17.91;78.29;100640.75;102433;279;97087;-61
2023/06/14 08:31:39;;;;;;;10.60;6.20;;;;;;;17.95;78.26;100641.04;102428;279;120699;-62
2023/06/14 08:34:19;;;;;;;8.00;7.00;;;;;;;18.04;77.95;100645.34;102372;279;104208;-61
2023/06/14 08:36:58;;;;;;;7.70;6.50;;;;;;;18.11;78.01;100649.30;102410;279;114787;-58
2023/06/14 08:39:34;;;;;;;10.30;6.80;;;;;;;18.18;78.12;100649.36;102434;279;97123;-56
2023/06/14 08:42:10;;;;;;;11.30;6.80;;;;;;;18.27;77.80;100650.38;102483;279;98513;-60
2023/06/14 08:44:45;;;;;;;13.10;8.50;;;;;;;18.42;78.26;100649.13;102456;279;119950;-58
2023/06/14 08:47:18;;;;;;;13.60;8.10;;;;;;;18.57;77.10;100651.28;102493;279;104722;-56
2023/06/14 08:49:50;;;;;;;9.40;7.70;;;;;;;18.69;76.75;100649.98;102370;279;112355;-56
2023/06/14 08:52:30;;;;;;;9.70;7.50;;;;;;;18.73;76.12;100647.27;102479;279;93381;-56
2023/06/14 08:55:06;;;;;;;9.50;7.10;;;;;;;18.75;76.12;100642.77;102288;279;99435;-57
2023/06/14 08:57:39;;;;;;;9.30;6.80;;;;;;;18.81;75.54;100638.41;102422;279;118853;-59
2023/06/14 09:00:15;;;;;;;11.50;7.40;;;;;;;18.87;75.27;100636.31;102470;279;104032;-59
2023/06/14 09:02:55;;;;;;;9.40;7.30;;;;;;;19.16;75.15;100627.58;102363;279;113075;-61
2023/06/14 09:05:27;;;;;;;18.70;9.40;;;;;;;19.49;74.66;100628.92;102406;279;94415;-61
2023/06/14 09:08:05;;;;;;;8.30;7.30;;;;;;;19.87;74.56;100621.75;102401;279;96428;-62
2023/06/14 09:10:37;;;;;;;7.30;6.10;;;;;;;20.33;74.49;100621.16;102406;279;118979;-62
2023/06/14 09:13:09;;;;;;;12.50;6.00;;;;;;;20.65;72.94;100620.95;102420;279;103750;-62
2023/06/14 09:15:42;;;;;;;7.30;5.30;;;;;;;20.80;72.68;100620.85;102446;279;114268;-64
2023/06/14 09:18:21;;;;;;;5.70;4.90;;;;;;;21.23;72.37;100620.84;102383;279;93643;-63
2023/06/14 09:21:04;;;;;;;5.80;4.80;;;;;;;21.89;71.02;100623.36;102481;279;96538;-63
2023/06/14 09:23:40;;;;;;;7.50;5.30;;;;;;;22.33;69.96;100629.01;102454;279;119451;-63
2023/06/14 09:26:19;;;;;;;5.90;5.00;;;;;;;22.49;68.35;100632.20;102502;279;105296;-63
2023/06/14 09:28:55;;;;;;;6.00;4.50;;;;;;;22.67;67.29;100631.77;102499;279;115056;-64
2023/06/14 09:31:32;;;;;;;6.20;5.00;;;;;;;22.52;66.45;100631.11;102511;279;94015;-63
2023/06/14 09:34:05;;;;;;;7.20;5.40;;;;;;;22.27;65.78;100630.10;102507;279;97985;-60
2023/06/14 09:36:43;;;;;;;7.40;4.90;;;;;;;22.14;65.66;100634.80;102501;279;118582;-57
2023/06/14 09:39:20;;;;;;;7.20;4.20;;;;;;;21.86;64.89;100639.83;102454;279;105972;-58
2023/06/14 09:41:56;;;;;;;5.30;4.80;;;;;;;21.57;64.84;100636.54;102488;279;112816;-61
2023/06/14 09:44:32;;;;;;;5.20;4.50;;;;;;;21.43;64.71;100633.13;102461;279;93376;-61
2023/06/14 09:47:07;;;;;;;6.40;4.40;;;;;;;21.09;64.53;100634.53;102408;279;97754;-58
2023/06/14 09:49:46;;;;;;;8.00;4.60;;;;;;;20.89;64.73;100633.11;102417;279;121360;-59
2023/06/14 09:52:23;;;;;;;6.10;4.40;;;;;;;20.68;64.95;100633.83;102428;279;104364;-55
2023/06/14 09:55:00;;;;;;;7.30;4.30;;;;;;;20.45;64.93;100636.15;102205;279;114609;-56
2023/06/14 09:57:41;;;;;;;6.60;3.90;;;;;;;20.26;64.64;100638.11;102429;279;93115;-60
2023/06/14 10:00:19;;;;;;;8.00;4.20;;;;;;;20.05;63.81;100643.55;102289;279;99174;-64
2023/06/14 10:03:01;;;;;;;10.90;6.40;;;;;;;19.98;63.96;100641.77;102417;279;120945;-57
2023/06/14 10:05:35;;;;;;;8.60;4.60;;;;;;;19.94;64.20;100646.67;102459;268;103683;-60
2023/06/14 10:08:11;;;;;;;12.40;4.80;;;;;;;19.87;63.96;100640.79;102425;279;114800;-60
2023/06/14 10:10:44;;;;;;;6.10;4.70;;;;;;;19.89;63.94;100636.34;102310;279;94938;-61
2023/06/14 10:13:18;;;;;;;6.90;4.70;;;;;;;19.97;64.24;100636.92;102448;279;98104;-60
2023/06/14 10:15:58;;;;;;;;;;;;;;;20.12;64.34;100635.50;102472;279;120541;-57
2023/06/14 10:18:46;;;;;;;10.80;5.50;;;;;;;20.37;64.86;100632.10;102444;279;104950;-56
2023/06/14 10:21:29;;;;;;;10.80;5.00;;;;;;;20.69;64.66;100631.98;102430;279;115475;-59
2023/06/14 10:24:05;;;;;;;7.50;4.60;;;;;;;20.69;63.54;100631.05;102377;279;96102;-59
2023/06/14 10:26:52;;;;;;;9.00;4.50;;;;;;;20.69;63.09;100625.50;102490;279;96949;-55
2023/06/14 10:29:32;;;;;;;8.90;4.50;;;;;;;20.82;62.60;100626.98;102483;279;121219;-56
2023/06/14 10:32:12;;;;;;;9.30;4.60;;;;;;;20.93;62.66;100627.69;102404;279;105009;-56
2023/06/14 10:34:57;;;;;;;6.50;5.20;;;;;;;21.08;62.26;100632.35;102427;279;114316;-56
2023/06/14 10:37:29;;;;;;;7.70;4.70;;;;;;;21.24;61.77;100628.35;102421;279;93301;-57
2023/06/14 10:40:08;;;;;;;8.20;4.40;;;;;;;21.32;61.58;100626.98;102408;279;98094;-57
2023/06/14 10:42:54;;;;;;;8.20;4.80;;;;;;;21.44;60.84;100624.48;102380;279;121611;-61
2023/06/14 10:45:34;;;;;;;6.40;3.90;;;;;;;21.29;59.85;100620.50;102409;279;104789;-59
2023/06/14 10:48:28;;;;;;;5.90;3.50;;;;;;;21.21;59.74;100620.39;102424;279;114351;-60
2023/06/14 10:51:03;;;;;;;5.20;3.60;;;;;;;21.16;59.21;100623.69;102450;279;94245;-59
2023/06/14 10:53:43;;;;;;;5.40;3.70;;;;;;;21.17;59.27;100620.00;102456;279;97048;-60
2023/06/14 10:56:30;;;;;;;4.60;3.40;;;;;;;21.21;58.98;100613.14;102442;279;120976;-56
2023/06/14 10:59:06;;;;;;;6.80;3.40;;;;;;;21.35;58.58;100612.83;102394;279;105217;-57
2023/06/14 11:01:58;;;;;;;6.90;3.00;;;;;;;21.64;57.97;100610.83;102427;279;113918;-56
2023/06/14 11:04:50;;;;;;;5.30;2.90;;;;;;;21.71;56.58;100614.55;102426;279;95007;-57
2023/06/14 11:07:59;;;;;;;7.90;3.00;;;;;;;21.69;56.12;100614.31;102431;267;98549;-58
2023/06/14 11:10:40;;;;;;;5.80;3.20;;;;;;;21.72;56.11;100612.14;102430;279;120151;-57
2023/06/14 11:13:13;;;;;;;8.80;3.40;;;;;;;21.84;55.80;100603.52;102430;279;105788;-55
2023/06/14 11:15:48;;;;;;;9.60;3.90;;;;;;;21.92;56.10;100598.75;102494;279;113691;-61
2023/06/14 11:18:25;;;;;;;5.20;3.40;;;;;;;21.90;55.60;100600.36;101864;279;634137;-60
2023/06/14 11:21:00;;;;;;;4.30;3.20;;;;;;;21.82;55.60;100598.90;102399;279;97683;-60
2023/06/14 11:23:37;;;;;;;7.10;3.50;;;;;;;21.71;55.18;100600.31;102385;279;119875;-60
2023/06/14 11:26:10;;;;;;;5.10;3.40;;;;;;;21.52;55.23;100606.79;102418;279;106343;-58
2023/06/14 11:28:44;;;;;;;4.60;3.50;;;;;;;21.38;55.21;100604.52;102400;279;115180;-57
2023/06/14 11:31:16;;;;;;;6.60;4.00;;;;;;;21.39;55.21;100599.59;102390;279;92042;-60
2023/06/14 11:33:56;;;;;;;5.40;4.00;;;;;;;21.54;55.75;100599.33;102421;279;97344;-60
2023/06/14 11:36:31;;;;;;;6.00;3.90;;;;;;;21.49;55.30;100601.53;102446;279;118702;-60
2023/06/14 11:39:09;;;;;;;7.40;4.00;;;;;;;21.58;55.54;100598.06;102365;279;106529;-60
2023/06/14 11:41:47;;;;;;;8.60;4.60;;;;;;;21.57;55.03;100607.85;102429;279;114790;-58
2023/06/14 11:44:28;;;;;;;4.10;3.30;;;;;;;21.48;54.53;100603.77;102408;279;93563;-58
2023/06/14 11:47:07;;;;;;;6.80;3.80;;;;;;;21.68;54.63;100596.55;102467;279;97574;-59
2023/06/14 11:49:41;;;;;;;5.00;3.10;;;;;;;21.82;54.10;100596.36;102436;279;119805;-58
2023/06/14 11:52:15;;;;;;;;;;;;;;;21.93;53.00;100601.09;102537;279;106004;-57
2023/06/14 11:54:53;;;;;;;5.10;2.60;;;;;;;21.82;52.57;100596.92;102392;279;114260;-56
2023/06/14 11:57:26;;;;;;;4.80;2.60;;;;;;;21.80;52.40;100596.78;102475;279;93500;-57
2023/06/14 12:00:00;;;;;;;5.80;3.30;;;;;;;21.85;52.47;100594.31;102422;271;96152;-57
2023/06/14 12:02:35;;;;;;;7.00;2.90;;;;;;;21.96;52.48;100594.62;102471;279;120192;-56
2023/06/14 12:05:10;;;;;;;4.30;2.70;;;;;;;21.78;51.83;100599.95;102487;279;105457;-58